Time;durP1;ratioP1;P1;durP2;ratioP2;P2;SDS_P1;SDS_P2;PMS_P1;PMS_P2;Temp;Humidity;BMP_temperature;BMP_pressure;BME280_temperature;BME280_humidity;BME280_pressure;Samples;Min_cycle;Max_cycle;Signal;HPM_P1;HPM_P2
2023/05/17 03:02:28;;;;;;;17.07;15.90;;;4.00;99.90;;;;;;5049911;23;20235;-77
2023/05/17 03:04:54;;;;;;;15.27;14.37;;;4.00;99.90;;;;;;4996018;28;20813;-77
2023/05/17 03:07:19;;;;;;;14.90;13.97;;;3.90;99.90;;;;;;5015038;28;20184;-77
2023/05/17 03:09:45;;;;;;;23.33;21.83;;;3.90;99.90;;;;;;4996146;28;20239;-77
2023/05/17 03:12:12;;;;;;;20.00;18.67;;;3.90;99.90;;;;;;4994573;28;20199;-77
2023/05/17 03:14:37;;;;;;;23.07;21.60;;;3.90;99.90;;;;;;4993763;28;20181;-77
2023/05/17 03:17:03;;;;;;;19.23;18.23;;;3.80;99.90;;;;;;4976493;28;20181;-76
2023/05/17 03:19:29;;;;;;;27.60;25.97;;;3.90;99.90;;;;;;4990274;28;20207;-76
2023/05/17 03:21:55;;;;;;;27.00;25.47;;;3.80;99.90;;;;;;4982245;28;20291;-77
2023/05/17 03:24:21;;;;;;;28.57;26.80;;;3.70;99.90;;;;;;4993304;28;20195;-76
2023/05/17 03:26:46;;;;;;;23.07;21.53;;;3.70;99.90;;;;;;4974532;28;20177;-77
2023/05/17 03:29:12;;;;;;;23.17;22.00;;;3.70;99.90;;;;;;4973822;28;20223;-76
2023/05/17 03:31:38;;;;;;;23.37;22.17;;;3.70;99.90;;;;;;4973975;28;20250;-76
2023/05/17 03:34:05;;;;;;;20.50;19.13;;;3.80;99.90;;;;;;4990717;28;20718;-77
2023/05/17 03:36:32;;;;;;;17.47;16.27;;;3.70;99.90;;;;;;4991251;28;20176;-76
2023/05/17 03:38:58;;;;;;;14.13;13.40;;;3.60;99.90;;;;;;4973853;28;20192;-77
2023/05/17 03:41:24;;;;;;;16.40;15.50;;;3.60;99.90;;;;;;4975068;28;20200;-77
2023/05/17 03:43:50;;;;;;;18.77;17.80;;;3.60;99.90;;;;;;4991806;28;20566;-77
2023/05/17 03:46:16;;;;;;;20.47;19.27;;;3.60;99.90;;;;;;4991326;28;20188;-77
2023/05/17 03:48:41;;;;;;;16.80;15.80;;;3.70;99.90;;;;;;4976914;28;20208;-76
2023/05/17 03:51:07;;;;;;;16.53;15.43;;;3.70;99.90;;;;;;4979206;28;20207;-77
2023/05/17 03:53:35;;;;;;;14.13;13.33;;;3.70;99.90;;;;;;4981958;28;20793;-77
2023/05/17 03:56:01;;;;;;;15.50;14.77;;;3.80;99.90;;;;;;4983540;28;20176;-78
2023/05/17 03:58:27;;;;;;;23.00;21.83;;;3.80;99.90;;;;;;4982332;28;20189;-77
2023/05/17 04:00:52;;;;;;;42.37;39.87;;;3.80;99.90;;;;;;4980955;28;20306;-78
2023/05/17 04:03:18;;;;;;;43.10;40.60;;;3.80;99.90;;;;;;4981523;28;20227;-79
2023/05/17 04:05:45;;;;;;;28.73;27.13;;;3.80;99.90;;;;;;4981748;28;20231;-78
2023/05/17 04:08:11;;;;;;;10.13;9.57;;;3.80;99.90;;;;;;4979352;28;20184;-78
2023/05/17 04:10:40;;;;;;;20.73;19.47;;;3.90;99.90;;;;;;4980104;28;20573;-78
2023/05/17 04:13:07;;;;;;;27.50;25.80;;;4.00;99.90;;;;;;4979332;28;20240;-78
2023/05/17 04:15:34;;;;;;;13.63;12.67;;;4.00;99.90;;;;;;4996606;28;20176;-78
2023/05/17 04:17:59;;;;;;;13.90;13.20;;;4.10;99.90;;;;;;4979293;28;20688;-78
2023/05/17 04:20:25;;;;;;;11.67;10.87;;;4.20;99.90;;;;;;4996647;28;20181;-78
2023/05/17 04:22:51;;;;;;;7.93;7.23;;;4.20;99.90;;;;;;4972333;28;20185;-78
2023/05/17 04:25:17;;;;;;;28.07;26.40;;;4.30;99.90;;;;;;4992444;28;20211;-78
2023/05/17 04:27:45;;;;;;;26.83;25.33;;;4.40;99.90;;;;;;4996582;28;20187;-78
2023/05/17 04:30:11;;;;;;;18.93;17.77;;;4.50;99.90;;;;;;4998617;28;20726;-79
2023/05/17 04:32:37;;;;;;;12.50;11.67;;;4.60;99.90;;;;;;4998810;28;20706;-79
2023/05/17 04:35:04;;;;;;;10.70;9.80;;;4.70;99.90;;;;;;4998799;28;20187;-78
2023/05/17 04:37:30;;;;;;;12.83;12.03;;;4.90;99.90;;;;;;5014316;28;20222;-79
2023/05/17 04:39:57;;;;;;;8.30;6.37;;;5.10;99.90;;;;;;5014879;28;20184;-79
2023/05/17 04:42:23;;;;;;;7.00;6.40;;;5.20;99.90;;;;;;4998464;28;20215;-78
2023/05/17 04:44:49;;;;;;;9.53;8.87;;;5.40;99.90;;;;;;5004476;28;20179;-77
2023/05/17 04:47:15;;;;;;;11.73;10.93;;;5.50;99.90;;;;;;5003629;28;20221;-79
2023/05/17 04:49:42;;;;;;;10.60;10.00;;;5.70;99.90;;;;;;5000872;28;20301;-78
2023/05/17 04:52:08;;;;;;;14.40;13.50;;;5.90;99.90;;;;;;5004938;28;20232;-78
2023/05/17 04:54:33;;;;;;;8.40;7.67;;;6.10;99.90;;;;;;5021457;28;20175;-77
2023/05/17 04:56:59;;;;;;;8.63;7.33;;;6.30;99.90;;;;;;5000386;28;20171;-79
2023/05/17 04:59:25;;;;;;;7.63;7.13;;;6.50;99.90;;;;;;5016196;28;20179;-81
2023/05/17 05:01:50;;;;;;;15.70;14.70;;;6.60;99.90;;;;;;4997543;28;20215;-77
2023/05/17 05:04:16;;;;;;;12.73;11.83;;;6.90;99.90;;;;;;5019283;28;20179;-76
2023/05/17 05:06:42;;;;;;;8.00;7.43;;;7.30;99.90;;;;;;5002593;28;20187;-78
2023/05/17 05:09:08;;;;;;;7.73;7.17;;;7.70;99.90;;;;;;5001837;28;20302;-78
2023/05/17 05:11:34;;;;;;;7.60;7.00;;;8.10;99.90;;;;;;4999581;28;20203;-78
2023/05/17 05:14:00;;;;;;;25.60;24.10;;;8.50;99.90;;;;;;5016728;28;20180;-78
2023/05/17 05:16:26;;;;;;;23.97;22.50;;;8.70;99.90;;;;;;4998491;28;20245;-78
2023/05/17 05:18:52;;;;;;;14.80;13.70;;;8.70;99.90;;;;;;4997571;28;20182;-78
2023/05/17 05:21:18;;;;;;;9.03;8.43;;;8.80;99.90;;;;;;4998376;28;20789;-79
2023/05/17 05:23:43;;;;;;;18.50;17.43;;;9.10;99.90;;;;;;5015765;28;20238;-79
2023/05/17 05:26:09;;;;;;;22.20;21.10;;;9.30;99.90;;;;;;5013095;28;20206;-78
2023/05/17 05:28:36;;;;;;;13.70;12.57;;;9.60;99.90;;;;;;4992904;28;20680;-77
2023/05/17 05:31:01;;;;;;;11.00;10.13;;;10.10;99.90;;;;;;4997734;28;20205;-77
2023/05/17 05:33:27;;;;;;;10.33;9.53;;;10.70;99.90;;;;;;4995656;28;20629;-78
2023/05/17 05:35:53;;;;;;;7.97;7.50;;;11.30;99.90;;;;;;4972720;28;20275;-78
2023/05/17 05:38:19;;;;;;;8.30;7.53;;;11.70;99.90;;;;;;4977443;28;20177;-78
2023/05/17 05:40:48;;;;;;;15.40;14.53;;;12.00;99.90;;;;;;4976998;28;20208;-77
2023/05/17 05:43:14;;;;;;;30.83;29.03;;;12.30;99.90;;;;;;4995634;28;20261;-71
2023/05/17 05:45:44;;;;;;;24.10;22.60;;;12.60;99.90;;;;;;5012180;28;20251;-70
2023/05/17 05:48:13;;;;;;;11.53;10.83;;;12.80;99.90;;;;;;4994351;28;20238;-70
2023/05/17 05:50:41;;;;;;;5.27;4.77;;;13.30;99.90;;;;;;5011819;28;20204;-72
2023/05/17 05:53:08;;;;;;;4.27;3.70;;;13.30;99.90;;;;;;5012059;28;20188;-71
2023/05/17 05:55:34;;;;;;;5.70;4.90;;;13.40;99.90;;;;;;5011673;28;20183;-70
2023/05/17 05:58:00;;;;;;;5.23;4.83;;;13.60;99.90;;;;;;5011467;28;20258;-70
2023/05/17 06:00:25;;;;;;;5.13;4.80;;;13.70;99.90;;;;;;5011674;28;20187;-72
2023/05/17 06:02:52;;;;;;;6.00;5.17;;;14.00;99.90;;;;;;4994364;28;20183;-71
2023/05/17 06:05:18;;;;;;;8.10;6.50;;;14.40;99.90;;;;;;5011602;28;20179;-70
2023/05/17 06:07:44;;;;;;;8.70;7.80;;;14.70;99.90;;;;;;4994990;28;20180;-71
2023/05/17 06:10:10;;;;;;;10.70;9.80;;;14.70;99.90;;;;;;5012751;28;20203;-72
2023/05/17 06:12:36;;;;;;;12.03;11.30;;;14.60;99.90;;;;;;5011561;28;20191;-71
2023/05/17 06:15:02;;;;;;;12.70;11.97;;;14.70;99.90;;;;;;5011215;28;20172;-69
2023/05/17 06:17:28;;;;;;;13.13;12.33;;;14.90;99.90;;;;;;4993856;28;20530;-70
2023/05/17 06:19:54;;;;;;;12.07;11.07;;;15.00;99.90;;;;;;4993812;28;20190;-70
2023/05/17 06:22:20;;;;;;;9.73;9.03;;;15.20;99.90;;;;;;5011511;28;20702;-71
2023/05/17 06:24:46;;;;;;;7.90;5.73;;;15.50;99.90;;;;;;5011769;28;20184;-70
2023/05/17 06:27:11;;;;;;;12.37;10.27;;;16.10;99.90;;;;;;5010908;28;20230;-70
2023/05/17 06:29:37;;;;;;;9.53;8.93;;;16.60;99.90;;;;;;5011443;28;20204;-70
2023/05/17 06:32:03;;;;;;;9.47;8.20;;;16.70;99.90;;;;;;5011301;28;20738;-70
2023/05/17 06:34:29;;;;;;;7.30;6.60;;;16.90;99.90;;;;;;5004382;28;20215;-70
2023/05/17 06:36:55;;;;;;;6.67;6.17;;;17.10;99.90;;;;;;4973314;28;20215;-71
2023/05/17 06:39:21;;;;;;;6.37;5.63;;;17.70;99.90;;;;;;5003792;28;20189;-71
2023/05/17 06:41:46;;;;;;;5.40;4.57;;;17.60;99.90;;;;;;4993789;28;20250;-74
2023/05/17 06:44:12;;;;;;;5.60;5.20;;;16.90;99.90;;;;;;4994430;28;20224;-71
2023/05/17 06:46:38;;;;;;;7.03;6.23;;;16.70;99.90;;;;;;4994163;28;20184;-72
2023/05/17 06:49:04;;;;;;;6.00;5.50;;;16.70;99.90;;;;;;5011049;28;20211;-74
2023/05/17 06:51:30;;;;;;;8.03;7.40;;;16.80;99.90;;;;;;5011662;28;20635;-68
2023/05/17 06:53:56;;;;;;;6.40;5.53;;;17.10;99.90;;;;;;5011510;28;20191;-68
2023/05/17 06:56:21;;;;;;;6.93;6.20;;;17.20;99.90;;;;;;4993889;28;20180;-67
2023/05/17 06:58:47;;;;;;;8.80;6.63;;;16.80;99.90;;;;;;4993491;28;20175;-68
2023/05/17 07:01:13;;;;;;;9.10;8.40;;;16.80;99.90;;;;;;5011091;28;20219;-70
2023/05/17 07:03:39;;;;;;;5.70;5.20;;;17.20;99.90;;;;;;5011349;28;20187;-67
2023/05/17 07:06:05;;;;;;;6.03;4.70;;;17.50;99.10;;;;;;4993558;28;20214;-68
2023/05/17 07:08:30;;;;;;;6.07;5.23;;;17.70;99.10;;;;;;4973351;28;20279;-67
2023/05/17 07:10:56;;;;;;;9.03;6.67;;;17.70;98.40;;;;;;4971986;28;20287;-68
2023/05/17 07:13:22;;;;;;;10.63;9.93;;;16.20;98.90;;;;;;5010708;28;20187;-67
2023/05/17 07:15:48;;;;;;;6.10;5.50;;;15.40;99.90;;;;;;5010935;28;20237;-68
2023/05/17 07:18:14;;;;;;;7.57;6.87;;;15.40;99.90;;;;;;5010644;28;20182;-68
2023/05/17 07:20:39;;;;;;;9.30;8.50;;;16.20;99.90;;;;;;5010567;28;20204;-68
2023/05/17 07:23:05;;;;;;;13.30;12.40;;;16.50;99.90;;;;;;5010971;28;20184;-67
2023/05/17 07:25:31;;;;;;;10.67;9.93;;;16.80;99.90;;;;;;4993381;28;20682;-67
2023/05/17 07:27:56;;;;;;;6.43;5.00;;;17.40;99.90;;;;;;5009388;28;20171;-67
2023/05/17 07:30:22;;;;;;;6.10;4.47;;;17.80;98.70;;;;;;4993852;28;20208;-68
2023/05/17 07:32:49;;;;;;;6.00;5.40;;;18.10;98.10;;;;;;4976522;28;20179;-67
2023/05/17 07:35:15;;;;;;;6.47;5.80;;;18.10;97.70;;;;;;4977925;28;20181;-68
2023/05/17 07:37:40;;;;;;;6.20;5.70;;;17.80;97.40;;;;;;4976915;28;20230;-68
2023/05/17 07:40:07;;;;;;;7.20;6.47;;;17.40;97.70;;;;;;4994778;28;20275;-69
2023/05/17 07:42:32;;;;;;;7.73;5.73;;;16.60;98.40;;;;;;4995165;28;20580;-70
2023/05/17 07:44:58;;;;;;;9.90;9.00;;;16.00;99.90;;;;;;4994940;28;20191;-68
2023/05/17 07:47:24;;;;;;;14.17;12.87;;;15.80;99.90;;;;;;4994762;28;20191;-67
2023/05/17 07:49:50;;;;;;;11.10;10.20;;;15.60;99.90;;;;;;4994697;28;20303;-68
2023/05/17 07:52:15;;;;;;;11.50;10.40;;;15.60;99.90;;;;;;4994747;28;20196;-67
2023/05/17 07:54:41;;;;;;;14.63;13.63;;;16.00;99.90;;;;;;4994590;28;20180;-67
2023/05/17 07:57:07;;;;;;;14.30;13.17;;;16.40;99.80;;;;;;4994402;28;20649;-68
2023/05/17 07:59:33;;;;;;;12.40;11.60;;;16.40;98.70;;;;;;4994484;28;20188;-69
2023/05/17 08:01:58;;;;;;;12.63;11.43;;;15.80;99.00;;;;;;4994440;28;20220;-67
2023/05/17 08:04:24;;;;;;;6.70;5.37;;;15.00;99.90;;;;;;4994511;28;20188;-67
2023/05/17 08:06:50;;;;;;;5.27;4.87;;;14.70;99.90;;;;;;4977297;28;20238;-67
2023/05/17 08:09:16;;;;;;;5.87;4.97;;;14.80;99.90;;;;;;4994295;28;20231;-67
2023/05/17 08:11:45;;;;;;;4.93;4.47;;;15.10;99.90;;;;;;4994286;28;20196;-67
2023/05/17 08:14:12;;;;;;;7.73;4.77;;;15.00;99.90;;;;;;4994385;28;20184;-68
2023/05/17 08:16:38;;;;;;;5.30;4.90;;;15.30;99.90;;;;;;4994434;28;20188;-67
2023/05/17 08:19:04;;;;;;;5.73;5.23;;;15.80;99.90;;;;;;4993805;28;20561;-67
2023/05/17 08:21:30;;;;;;;7.97;7.50;;;15.80;99.90;;;;;;4994174;28;20215;-68
2023/05/17 08:23:56;;;;;;;9.07;8.33;;;15.80;98.90;;;;;;4993997;28;20192;-67
2023/05/17 08:26:22;;;;;;;6.60;6.00;;;15.60;99.20;;;;;;4994057;28;20180;-68
2023/05/17 08:28:48;;;;;;;10.13;9.13;;;15.40;99.90;;;;;;4993617;28;20215;-68
2023/05/17 08:31:13;;;;;;;6.67;5.90;;;15.70;98.70;;;;;;4976860;28;20635;-68
2023/05/17 08:33:39;;;;;;;11.57;10.33;;;15.90;99.70;;;;;;4994210;28;20720;-67
2023/05/17 08:36:06;;;;;;;10.47;9.77;;;16.60;98.90;;;;;;4994022;28;20702;-67
2023/05/17 08:38:34;;;;;;;12.03;11.07;;;16.80;97.00;;;;;;4975851;28;20235;-67
2023/05/17 08:41:00;;;;;;;14.27;13.20;;;16.40;98.30;;;;;;4976526;28;20291;-67
2023/05/17 08:43:27;;;;;;;8.77;8.20;;;16.70;97.90;;;;;;4993890;28;20184;-67
2023/05/17 08:45:56;;;;;;;6.97;6.17;;;17.10;96.80;;;;;;4976319;28;20631;-67
2023/05/17 08:48:22;;;;;;;9.33;6.23;;;17.20;96.10;;;;;;4993039;28;20185;-71
2023/05/17 08:50:53;;;;;;;6.10;5.57;;;17.10;95.80;;;;;;4993640;28;20288;-72
2023/05/17 08:53:18;;;;;;;5.90;5.40;;;17.00;95.60;;;;;;4993762;28;20185;-72
2023/05/17 08:55:49;;;;;;;6.50;5.60;;;17.20;96.00;;;;;;4976407;28;20243;-72
2023/05/17 08:58:24;;;;;;;6.67;6.03;;;17.60;94.40;;;;;;4993201;28;20184;-71
2023/05/17 09:00:51;;;;;;;6.90;6.17;;;17.50;95.70;;;;;;4992781;28;20215;-71
2023/05/17 09:03:18;;;;;;;7.40;6.50;;;17.30;95.50;;;;;;4975988;28;20551;-71
2023/05/17 09:05:44;;;;;;;5.73;5.23;;;17.40;96.30;;;;;;4975933;28;20619;-71
2023/05/17 09:08:12;;;;;;;7.83;4.83;;;17.40;95.10;;;;;;4975485;28;20196;-71
2023/05/17 09:10:41;;;;;;;6.33;5.73;;;16.80;94.60;;;;;;4993217;28;20220;-71
2023/05/17 09:13:11;;;;;;;6.77;6.07;;;16.30;95.20;;;;;;4993182;28;20176;-72
2023/05/17 09:15:40;;;;;;;6.50;6.10;;;16.50;96.60;;;;;;4993003;28;20552;-71
2023/05/17 09:18:11;;;;;;;5.10;4.73;;;16.60;95.60;;;;;;4993019;28;20198;-70
2023/05/17 09:20:38;;;;;;;7.63;6.90;;;16.60;93.60;;;;;;4993202;28;20212;-71
2023/05/17 09:23:09;;;;;;;10.20;9.40;;;15.70;94.20;;;;;;4992894;28;20715;-71
2023/05/17 09:25:36;;;;;;;15.47;14.53;;;15.30;97.20;;;;;;4992893;28;20180;-71
2023/05/17 09:28:08;;;;;;;15.40;14.50;;;15.70;94.90;;;;;;4992354;28;20603;-71
2023/05/17 09:30:38;;;;;;;17.27;16.37;;;15.60;95.20;;;;;;4993066;28;20791;-71
2023/05/17 09:33:09;;;;;;;9.53;9.03;;;16.10;92.90;;;;;;4992762;28;20181;-70
2023/05/17 09:35:37;;;;;;;6.00;5.40;;;16.40;93.10;;;;;;4975462;28;20206;-70
2023/05/17 09:38:11;;;;;;;4.80;4.40;;;16.60;92.90;;;;;;4992236;28;20185;-71
2023/05/17 09:40:41;;;;;;;5.40;5.00;;;16.80;92.50;;;;;;4992607;28;20212;-70
2023/05/17 09:43:08;;;;;;;5.57;5.17;;;16.30;92.20;;;;;;4992622;28;20206;-70
2023/05/17 09:45:35;;;;;;;4.10;3.80;;;16.20;93.00;;;;;;4975175;28;20180;-71
2023/05/17 09:48:14;;;;;;;4.57;4.27;;;16.20;91.70;;;;;;4992163;28;20227;-71
2023/05/17 09:50:44;;;;;;;5.00;4.60;;;16.80;91.80;;;;;;4991406;28;20310;-71
2023/05/17 09:53:32;;;;;;;4.63;4.33;;;17.30;90.50;;;;;;4992330;28;20226;-71
2023/05/17 09:56:04;;;;;;;4.73;4.27;;;18.00;90.20;;;;;;4992246;28;20184;-72
2023/05/17 09:58:35;;;;;;;4.93;4.63;;;18.50;90.00;;;;;;4974531;28;20377;-70
2023/05/17 10:01:02;;;;;;;6.13;5.60;;;19.10;85.30;;;;;;4974648;28;20270;-70
2023/05/17 10:03:37;;;;;;;7.27;6.63;;;18.90;88.00;;;;;;4992133;28;20172;-71
2023/05/17 10:06:08;;;;;;;7.83;5.97;;;18.30;88.90;;;;;;4992039;28;20176;-70
2023/05/17 10:08:37;;;;;;;6.23;5.50;;;18.30;89.70;;;;;;4991765;28;20426;-70
2023/05/17 10:11:09;;;;;;;6.63;6.03;;;18.40;89.90;;;;;;4974821;28;20204;-70
2023/05/17 10:13:48;;;;;;;6.20;5.53;;;18.70;90.20;;;;;;4992043;28;20188;-70
2023/05/17 10:16:15;;;;;;;5.47;4.97;;;18.60;88.30;;;;;;4992149;28;20184;-70
2023/05/17 10:18:41;;;;;;;5.77;5.27;;;18.60;89.10;;;;;;4991703;28;20414;-71
2023/05/17 10:21:07;;;;;;;6.17;5.57;;;18.70;88.30;;;;;;4992050;28;20239;-70
2023/05/17 10:23:34;;;;;;;5.60;5.10;;;18.50;88.60;;;;;;4974543;28;20183;-71
2023/05/17 10:26:01;;;;;;;6.57;5.63;;;18.20;88.30;;;;;;4991909;28;20195;-70
2023/05/17 10:28:28;;;;;;;6.33;5.80;;;18.10;90.00;;;;;;4974025;28;20199;-70
2023/05/17 10:30:54;;;;;;;6.23;5.63;;;17.70;90.40;;;;;;4991858;28;20549;-71
2023/05/17 10:33:23;;;;;;;7.20;5.30;;;17.50;91.20;;;;;;4974626;28;20588;-71
2023/05/17 10:35:50;;;;;;;6.83;5.90;;;17.40;91.60;;;;;;4991743;28;20176;-71
2023/05/17 10:38:17;;;;;;;5.57;5.17;;;17.40;92.30;;;;;;4992369;28;20188;-70
2023/05/17 10:40:44;;;;;;;7.00;5.63;;;17.40;92.00;;;;;;4992019;28;20208;-70
2023/05/17 10:43:12;;;;;;;6.10;5.50;;;17.60;92.10;;;;;;4975000;28;20540;-71
2023/05/17 10:45:39;;;;;;;6.63;6.03;;;17.70;90.30;;;;;;4991798;28;20279;-73
2023/05/17 10:48:06;;;;;;;7.33;5.97;;;17.70;87.10;;;;;;4991546;28;20199;-70
2023/05/17 10:50:32;;;;;;;6.37;5.87;;;18.40;89.50;;;;;;4974287;28;20270;-70
2023/05/17 10:52:58;;;;;;;6.30;5.80;;;18.90;89.90;;;;;;4992004;28;20262;-70
2023/05/17 10:55:44;;;;;;;11.67;10.57;;;19.60;87.00;;;;;;4974457;28;20186;-71
2023/05/17 10:58:18;;;;;;;6.57;5.80;;;18.90;85.00;;;;;;4991169;28;20676;-70
2023/05/17 11:00:53;;;;;;;5.40;4.90;;;18.50;89.10;;;;;;4973976;28;20219;-71
2023/05/17 11:03:21;;;;;;;7.47;6.20;;;17.90;88.70;;;;;;4995570;28;20655;-70
2023/05/17 11:06:21;;;;;;;7.53;6.03;;;17.20;91.20;;;;;;4995224;28;20184;-71
2023/05/17 11:09:16;;;;;;;6.00;5.43;;;17.10;91.90;;;;;;4977522;28;20675;-70
2023/05/17 11:12:54;;;;;;;8.27;5.33;;;16.90;91.00;;;;;;4995345;28;20232;-72
2023/05/17 11:15:26;;;;;;;6.50;5.87;;;17.00;91.10;;;;;;4900049;29;20561;-70
2023/05/17 11:17:52;;;;;;;5.17;4.73;;;17.10;91.70;;;;;;4899861;29;20183;-71
2023/05/17 11:20:24;;;;;;;5.73;5.00;;;17.20;90.40;;;;;;4975159;28;20679;-70
2023/05/17 11:22:57;;;;;;;4.97;4.67;;;17.00;90.60;;;;;;4995239;28;20185;-73
2023/05/17 11:25:26;;;;;;;5.87;5.00;;;16.90;91.00;;;;;;4995089;28;20176;-70
2023/05/17 11:27:52;;;;;;;6.07;5.37;;;16.80;90.40;;;;;;4994617;28;20176;-70
2023/05/17 11:30:28;;;;;;;7.17;5.47;;;16.70;91.80;;;;;;4995057;28;20302;-70
2023/05/17 11:33:05;;;;;;;6.57;5.90;;;16.90;90.70;;;;;;4977701;28;20526;-71
2023/05/17 11:35:35;;;;;;;5.70;5.20;;;16.90;90.80;;;;;;4995001;28;20184;-70
2023/05/17 11:38:17;;;;;;;6.67;6.03;;;17.30;91.50;;;;;;4994323;28;20180;-71
2023/05/17 11:40:45;;;;;;;5.93;5.50;;;17.80;90.00;;;;;;4994859;28;20204;-72
2023/05/17 11:43:22;;;;;;;5.33;4.83;;;17.90;90.00;;;;;;4977338;28;20236;-71
2023/05/17 11:46:00;;;;;;;6.37;5.87;;;18.10;90.30;;;;;;4994753;28;20184;-71
2023/05/17 11:48:26;;;;;;;6.50;6.00;;;18.20;88.10;;;;;;4994432;28;20269;-72
2023/05/17 11:50:54;;;;;;;5.43;5.03;;;17.80;89.20;;;;;;4994600;28;20293;-72
2023/05/17 11:53:20;;;;;;;5.87;5.30;;;17.80;88.60;;;;;;4977253;28;20652;-72
2023/05/17 11:55:49;;;;;;;8.27;5.90;;;17.80;88.30;;;;;;4976823;28;20204;-72
2023/05/17 11:58:19;;;;;;;5.90;5.33;;;17.80;89.30;;;;;;4976978;28;20207;-71
2023/05/17 12:00:52;;;;;;;6.87;5.67;;;18.00;89.40;;;;;;4994365;28;20208;-71
2023/05/17 12:03:26;;;;;;;6.20;5.57;;;18.00;90.00;;;;;;4994315;28;20243;-71
2023/05/17 12:06:08;;;;;;;5.90;5.30;;;18.30;90.40;;;;;;4977000;28;20215;-72
2023/05/17 12:08:35;;;;;;;5.63;5.13;;;18.20;89.50;;;;;;4993875;28;20192;-71
2023/05/17 12:11:02;;;;;;;5.73;5.23;;;17.80;90.00;;;;;;4994005;28;20688;-71
2023/05/17 12:13:29;;;;;;;6.53;4.80;;;17.20;90.10;;;;;;4976013;28;20176;-71
2023/05/17 12:16:10;;;;;;;5.30;4.80;;;17.00;91.00;;;;;;4976732;28;20196;-71
2023/05/17 12:18:43;;;;;;;5.77;5.27;;;16.60;91.70;;;;;;4993837;28;20186;-71
2023/05/17 12:21:13;;;;;;;7.10;5.80;;;16.30;91.60;;;;;;4994035;28;20208;-71
2023/05/17 12:23:44;;;;;;;6.07;5.47;;;16.30;92.70;;;;;;4994422;28;20519;-72
2023/05/17 12:26:13;;;;;;;5.60;5.03;;;16.50;91.80;;;;;;4993993;28;20180;-71
2023/05/17 12:28:59;;;;;;;6.43;5.67;;;16.80;91.30;;;;;;4993342;28;20594;-71
2023/05/17 12:31:29;;;;;;;5.77;5.27;;;16.90;91.30;;;;;;4993824;28;20291;-71
2023/05/17 12:33:57;;;;;;;6.60;5.20;;;17.10;91.00;;;;;;4993901;28;20299;-72
2023/05/17 12:36:24;;;;;;;4.67;4.37;;;17.10;90.50;;;;;;4993768;28;20187;-71
2023/05/17 12:38:52;;;;;;;5.23;4.80;;;17.20;89.80;;;;;;4993191;28;20192;-71
2023/05/17 12:41:19;;;;;;;4.93;4.43;;;17.30;90.40;;;;;;4993504;28;20266;-71
2023/05/17 12:43:45;;;;;;;5.90;5.50;;;17.50;90.50;;;;;;4993644;28;20283;-71
2023/05/17 12:46:19;;;;;;;8.40;5.57;;;17.70;88.00;;;;;;4993854;28;20596;-71
2023/05/17 12:48:46;;;;;;;6.60;6.00;;;17.80;87.30;;;;;;4975783;28;20188;-71
2023/05/17 12:51:14;;;;;;;4.97;4.67;;;18.20;88.00;;;;;;4993461;28;20196;-71
2023/05/17 12:53:42;;;;;;;9.37;5.40;;;18.70;87.70;;;;;;4993624;28;20299;-72
2023/05/17 12:56:13;;;;;;;5.17;4.70;;;19.20;86.60;;;;;;4993552;28;20180;-72
2023/05/17 12:58:38;;;;;;;8.60;7.80;;;19.20;86.40;;;;;;4993099;28;20199;-71
2023/05/17 13:01:12;;;;;;;8.07;7.47;;;19.40;83.80;;;;;;4993027;28;20212;-71
2023/05/17 13:03:38;;;;;;;5.80;4.70;;;18.60;85.00;;;;;;4993182;28;20224;-71
2023/05/17 13:06:08;;;;;;;6.03;5.33;;;18.30;88.00;;;;;;4993019;28;20219;-71
2023/05/17 13:08:34;;;;;;;5.40;5.00;;;17.90;87.50;;;;;;4992698;28;20454;-71
2023/05/17 13:11:13;;;;;;;6.23;5.60;;;17.30;89.50;;;;;;4992943;28;20468;-72
2023/05/17 13:13:40;;;;;;;5.90;5.30;;;17.10;90.50;;;;;;4993997;28;20190;-71
2023/05/17 13:16:06;;;;;;;5.33;4.93;;;17.20;91.00;;;;;;4976151;28;20276;-71
2023/05/17 13:18:51;;;;;;;7.80;5.20;;;17.00;90.90;;;;;;4992469;28;20181;-71
2023/05/17 13:21:19;;;;;;;6.73;5.83;;;16.70;90.90;;;;;;4975735;28;20223;-71
2023/05/17 13:23:46;;;;;;;6.53;5.50;;;16.20;91.80;;;;;;4993319;28;20176;-71
2023/05/17 13:26:12;;;;;;;6.10;5.70;;;15.90;92.10;;;;;;4993242;28;20648;-70
2023/05/17 13:28:40;;;;;;;7.10;6.60;;;15.70;92.10;;;;;;4975219;28;20180;-71
2023/05/17 13:31:05;;;;;;;8.27;7.10;;;15.50;92.40;;;;;;4992440;28;20234;-71
2023/05/17 13:33:31;;;;;;;9.63;8.63;;;15.50;92.80;;;;;;4975223;28;20260;-70
2023/05/17 13:35:57;;;;;;;12.10;11.30;;;15.40;92.80;;;;;;4992430;28;20188;-71
2023/05/17 13:38:23;;;;;;;14.47;13.37;;;15.40;93.30;;;;;;4992060;28;20500;-71
2023/05/17 13:40:49;;;;;;;13.00;12.17;;;15.50;94.00;;;;;;4992496;28;20212;-71
2023/05/17 13:43:15;;;;;;;14.07;12.97;;;15.70;94.20;;;;;;4992408;28;20185;-72
2023/05/17 13:45:41;;;;;;;15.13;13.90;;;15.80;94.30;;;;;;4975032;28;20238;-73
2023/05/17 13:48:07;;;;;;;12.30;11.30;;;16.00;94.40;;;;;;4974591;28;20203;-71
2023/05/17 13:50:32;;;;;;;15.20;14.10;;;15.90;93.70;;;;;;4992164;28;20222;-71
2023/05/17 13:53:00;;;;;;;14.07;13.17;;;16.00;94.80;;;;;;4992166;28;20180;-71
2023/05/17 13:55:26;;;;;;;14.73;13.73;;;16.00;94.50;;;;;;4992152;28;20645;-71
2023/05/17 13:57:52;;;;;;;14.73;13.67;;;15.70;94.40;;;;;;4991754;28;20190;-72
2023/05/17 14:00:19;;;;;;;17.80;16.37;;;15.40;95.10;;;;;;4991870;28;20188;-71
2023/05/17 14:02:45;;;;;;;13.97;12.60;;;15.40;95.10;;;;;;4974680;28;20184;-71
2023/05/17 14:05:11;;;;;;;14.23;12.87;;;15.40;95.60;;;;;;4991972;28;20192;-71
2023/05/17 14:07:41;;;;;;;10.43;9.60;;;15.30;95.30;;;;;;4974486;28;20602;-71
2023/05/17 14:10:08;;;;;;;8.73;7.93;;;15.20;95.70;;;;;;4991713;28;20254;-71
2023/05/17 14:12:35;;;;;;;10.50;9.50;;;15.30;96.10;;;;;;4991778;28;20181;-71
2023/05/17 14:15:02;;;;;;;11.23;10.33;;;15.40;95.40;;;;;;4991807;28;20186;-71
2023/05/17 14:17:27;;;;;;;11.17;10.37;;;15.40;94.90;;;;;;4991525;28;20172;-71
2023/05/17 14:19:53;;;;;;;10.50;9.67;;;15.30;94.80;;;;;;4991764;28;20187;-71
2023/05/17 14:22:19;;;;;;;11.60;10.73;;;15.50;95.60;;;;;;4991854;28;20200;-72
2023/05/17 14:24:45;;;;;;;13.33;12.33;;;15.60;95.00;;;;;;4991730;28;20180;-71
2023/05/17 14:27:11;;;;;;;14.23;13.10;;;15.70;94.50;;;;;;4991303;28;20188;-72
2023/05/17 14:29:37;;;;;;;15.03;13.03;;;15.70;94.20;;;;;;4991686;28;20302;-71
2023/05/17 14:32:03;;;;;;;13.33;12.23;;;15.60;94.40;;;;;;4991581;28;20200;-73
2023/05/17 14:34:29;;;;;;;13.53;12.33;;;15.70;94.60;;;;;;4974113;28;20184;-73
2023/05/17 14:36:55;;;;;;;14.23;13.13;;;15.90;95.20;;;;;;4990791;28;20216;-72
2023/05/17 14:39:21;;;;;;;16.57;15.13;;;16.00;94.50;;;;;;4991427;28;20184;-71
2023/05/17 14:41:47;;;;;;;13.80;12.70;;;16.20;94.10;;;;;;4991589;28;20203;-73
2023/05/17 14:44:13;;;;;;;13.70;12.70;;;16.30;94.00;;;;;;4991741;28;20652;-72
2023/05/17 14:46:39;;;;;;;11.43;10.57;;;16.10;93.60;;;;;;4991726;28;20192;-72
2023/05/17 14:49:05;;;;;;;12.67;10.93;;;15.70;93.60;;;;;;4991055;28;20207;-71
2023/05/17 14:51:31;;;;;;;14.93;13.83;;;15.80;94.60;;;;;;4991511;28;20200;-73
2023/05/17 14:53:57;;;;;;;13.10;12.10;;;15.70;94.10;;;;;;4991636;28;20206;-70
2023/05/17 14:56:24;;;;;;;13.50;12.53;;;15.60;94.20;;;;;;4991543;28;20181;-70
2023/05/17 14:58:50;;;;;;;10.90;10.20;;;15.80;93.60;;;;;;4991453;28;20526;-71
2023/05/17 15:01:16;;;;;;;12.73;11.73;;;15.60;92.80;;;;;;4991491;28;20270;-71
2023/05/17 15:03:42;;;;;;;13.67;12.57;;;15.70;94.00;;;;;;4974465;28;20594;-70
2023/05/17 15:06:08;;;;;;;12.23;11.30;;;15.90;93.70;;;;;;4973990;28;20199;-71
2023/05/17 15:08:34;;;;;;;13.93;12.80;;;15.90;94.30;;;;;;4973810;28;20246;-72
2023/05/17 15:11:00;;;;;;;9.53;8.83;;;16.10;94.20;;;;;;4990215;28;20211;-72
2023/05/17 15:13:26;;;;;;;7.60;6.90;;;16.10;92.70;;;;;;4991478;28;20181;-72
2023/05/17 15:15:51;;;;;;;8.80;7.90;;;16.00;92.40;;;;;;4991817;28;20250;-71
2023/05/17 15:18:17;;;;;;;9.20;8.50;;;15.90;92.50;;;;;;4988018;23;20710;-72
2023/05/17 15:20:43;;;;;;;8.37;7.77;;;15.80;93.00;;;;;;4971635;28;20552;-71
2023/05/17 15:23:09;;;;;;;9.17;8.47;;;15.70;92.50;;;;;;4971808;28;20195;-72
2023/05/17 15:25:35;;;;;;;13.73;12.63;;;15.60;92.90;;;;;;4971711;28;20193;-72
2023/05/17 15:28:01;;;;;;;17.00;15.20;;;15.60;93.50;;;;;;4954085;28;20712;-72
2023/05/17 15:30:27;;;;;;;13.67;12.57;;;15.60;93.30;;;;;;4971727;28;20213;-72
2023/05/17 15:32:57;;;;;;;11.50;10.37;;;15.60;93.20;;;;;;4971694;28;20185;-72
2023/05/17 15:35:23;;;;;;;14.13;12.77;;;15.60;93.70;;;;;;4971708;28;20211;-72
2023/05/17 15:37:52;;;;;;;13.13;11.97;;;15.50;94.60;;;;;;4954034;28;20665;-72
2023/05/17 15:40:20;;;;;;;12.67;11.77;;;15.40;95.50;;;;;;4971713;28;20181;-71
2023/05/17 15:42:46;;;;;;;10.80;9.90;;;15.50;95.00;;;;;;4971750;28;20174;-72
2023/05/17 15:45:12;;;;;;;9.70;8.70;;;15.50;95.60;;;;;;4971839;28;20212;-72